createdAt,value
2023-02-26T00:01:01.398Z,100.00
2023-02-26T00:03:28.039Z,100.00
2023-02-26T00:05:54.570Z,100.00
2023-02-26T00:08:21.393Z,100.00
2023-02-26T00:10:48.646Z,100.00
2023-02-26T00:13:15.586Z,100.00
2023-02-26T00:15:43.632Z,100.00
2023-02-26T00:18:15.612Z,100.00
2023-02-26T00:20:45.467Z,100.00
2023-02-26T00:23:15.888Z,100.00
2023-02-26T00:25:42.468Z,100.00
2023-02-26T00:28:09.939Z,100.00
2023-02-26T00:30:37.262Z,100.00
2023-02-26T00:33:05.894Z,100.00
2023-02-26T00:35:33.539Z,100.00
2023-02-26T00:38:07.341Z,100.00
2023-02-26T00:40:35.995Z,100.00
2023-02-26T00:43:07.877Z,100.00
2023-02-26T00:45:36.140Z,100.00
2023-02-26T00:48:21.463Z,100.00
2023-02-26T00:51:15.524Z,100.00
2023-02-26T00:54:03.560Z,100.00
2023-02-26T00:56:30.224Z,100.00
2023-02-26T00:58:57.862Z,100.00
2023-02-26T01:01:24.509Z,100.00
2023-02-26T01:03:51.290Z,100.00
2023-02-26T01:06:22.534Z,100.00
2023-02-26T01:09:08.299Z,100.00
2023-02-26T01:11:36.020Z,100.00
2023-02-26T01:14:04.078Z,100.00
2023-02-26T01:16:36.771Z,100.00
2023-02-26T01:19:15.320Z,100.00
2023-02-26T01:21:46.165Z,100.00
2023-02-26T01:24:16.796Z,100.00
2023-02-26T01:26:44.078Z,100.00
2023-02-26T01:29:10.907Z,100.00
2023-02-26T01:32:02.542Z,100.00
2023-02-26T01:34:39.150Z,100.00
2023-02-26T01:37:21.413Z,100.00
2023-02-26T01:39:59.223Z,100.00
2023-02-26T01:42:35.486Z,100.00
2023-02-26T01:45:10.816Z,100.00
2023-02-26T01:47:58.314Z,100.00
2023-02-26T01:50:29.980Z,100.00
2023-02-26T01:53:20.060Z,100.00
2023-02-26T01:55:51.454Z,100.00
2023-02-26T01:58:20.061Z,100.00
2023-02-26T02:00:46.649Z,100.00
2023-02-26T02:03:13.442Z,100.00
2023-02-26T02:05:58.590Z,100.00
2023-02-26T02:08:25.064Z,100.00
2023-02-26T02:10:52.977Z,100.00
2023-02-26T02:13:30.836Z,100.00
2023-02-26T02:16:12.384Z,100.00
2023-02-26T02:18:58.974Z,100.00
2023-02-26T02:21:49.637Z,100.00
2023-02-26T02:24:49.965Z,100.00
2023-02-26T02:27:36.426Z,100.00
2023-02-26T02:30:32.586Z,100.00
2023-02-26T02:33:10.415Z,100.00
2023-02-26T02:35:52.718Z,100.00
2023-02-26T02:38:25.078Z,100.00
2023-02-26T02:40:55.750Z,100.00
2023-02-26T02:43:33.588Z,100.00
2023-02-26T02:46:11.744Z,100.00
2023-02-26T02:48:43.640Z,100.00
2023-02-26T02:51:17.681Z,100.00
2023-02-26T02:53:59.773Z,100.00
2023-02-26T02:56:32.409Z,100.00
2023-02-26T02:59:12.179Z,100.00
2023-02-26T03:01:40.448Z,100.00
2023-02-26T03:04:13.323Z,100.00
2023-02-26T03:06:40.171Z,100.00
2023-02-26T03:09:08.330Z,100.00
2023-02-26T03:11:35.752Z,100.00
2023-02-26T03:14:03.228Z,100.00
2023-02-26T03:16:57.333Z,100.00
2023-02-26T03:19:26.817Z,100.00
2023-02-26T03:22:05.600Z,100.00
2023-02-26T03:24:48.486Z,100.00
2023-02-26T03:27:14.853Z,100.00
2023-02-26T03:29:54.357Z,100.00
2023-02-26T03:33:02.917Z,100.00
2023-02-26T03:35:43.609Z,100.00
2023-02-26T03:38:17.742Z,100.00
2023-02-26T03:41:08.824Z,100.00
2023-02-26T03:43:44.240Z,100.00
2023-02-26T03:46:17.089Z,100.00
2023-02-26T03:48:44.973Z,100.00
2023-02-26T03:51:14.548Z,100.00
2023-02-26T03:53:50.017Z,100.00
2023-02-26T03:56:26.022Z,100.00
2023-02-26T03:58:52.828Z,100.00
2023-02-26T04:01:34.493Z,100.00
2023-02-26T04:04:08.161Z,100.00
2023-02-26T04:06:35.112Z,100.00
2023-02-26T04:09:03.214Z,100.00
2023-02-26T04:11:30.908Z,100.00
2023-02-26T04:13:57.361Z,100.00
2023-02-26T04:16:24.308Z,100.00
2023-02-26T04:18:51.075Z,100.00
2023-02-26T04:21:21.956Z,100.00
2023-02-26T04:23:48.813Z,100.00
2023-02-26T04:26:15.352Z,100.00
2023-02-26T04:28:42.261Z,100.00
2023-02-26T04:31:10.470Z,100.00
2023-02-26T04:33:37.399Z,100.00
2023-02-26T04:36:05.026Z,100.00
2023-02-26T04:38:31.581Z,100.00
2023-02-26T04:40:58.114Z,100.00
2023-02-26T04:43:24.654Z,100.00
2023-02-26T04:45:51.325Z,100.00
2023-02-26T04:48:18.389Z,100.00
2023-02-26T04:50:45.684Z,100.00
2023-02-26T04:53:12.284Z,100.00
2023-02-26T04:55:40.862Z,100.00
2023-02-26T04:58:08.155Z,100.00
2023-02-26T05:00:35.072Z,100.00
2023-02-26T05:03:01.577Z,100.00
2023-02-26T05:05:28.099Z,100.00
2023-02-26T05:07:56.684Z,100.00
2023-02-26T05:10:24.133Z,100.00
2023-02-26T05:12:50.909Z,100.00
2023-02-26T05:15:17.583Z,100.00
2023-02-26T05:17:44.046Z,100.00
2023-02-26T05:20:11.626Z,100.00
2023-02-26T05:22:39.314Z,100.00
2023-02-26T05:25:06.388Z,100.00
2023-02-26T05:27:33.484Z,100.00
2023-02-26T05:30:00.003Z,100.00
2023-02-26T05:32:26.694Z,100.00
2023-02-26T05:34:53.387Z,100.00
2023-02-26T05:37:20.040Z,100.00
2023-02-26T05:39:46.649Z,100.00
2023-02-26T05:42:13.317Z,100.00
2023-02-26T05:44:39.877Z,100.00
2023-02-26T05:47:06.384Z,100.00
2023-02-26T05:49:33.169Z,100.00
2023-02-26T05:51:59.712Z,100.00
2023-02-26T05:54:26.203Z,100.00
2023-02-26T05:56:52.735Z,100.00
2023-02-26T05:59:19.178Z,100.00
2023-02-26T06:01:45.773Z,100.00
2023-02-26T06:04:12.217Z,100.00
2023-02-26T06:06:38.722Z,100.00
2023-02-26T06:09:05.437Z,100.00
2023-02-26T06:11:34.061Z,100.00
2023-02-26T06:14:01.139Z,100.00
2023-02-26T06:16:28.443Z,100.00
2023-02-26T06:18:55.081Z,100.00
2023-02-26T06:21:21.481Z,100.00
2023-02-26T06:23:48.033Z,100.00
2023-02-26T06:26:14.644Z,100.00
2023-02-26T06:28:41.786Z,100.00
2023-02-26T06:31:08.285Z,100.00
2023-02-26T06:33:34.807Z,100.00
2023-02-26T06:36:02.422Z,100.00
2023-02-26T06:38:29.360Z,100.00
2023-02-26T06:40:55.900Z,100.00
2023-02-26T06:43:22.514Z,100.00
2023-02-26T06:45:49.433Z,100.00
2023-02-26T06:48:16.327Z,100.00
2023-02-26T06:50:42.763Z,100.00
2023-02-26T06:53:09.419Z,100.00
2023-02-26T06:55:35.874Z,100.00
2023-02-26T06:58:02.310Z,100.00
2023-02-26T07:00:29.000Z,100.00
2023-02-26T07:02:55.679Z,100.00
2023-02-26T07:05:22.448Z,100.00
2023-02-26T07:07:48.922Z,100.00
2023-02-26T07:10:15.379Z,100.00
2023-02-26T07:12:42.191Z,100.00
2023-02-26T07:15:09.068Z,100.00
2023-02-26T07:17:35.647Z,100.00
2023-02-26T07:20:06.461Z,100.00
2023-02-26T07:22:33.889Z,100.00
2023-02-26T07:25:00.430Z,100.00
2023-02-26T07:27:27.470Z,100.00
2023-02-26T07:29:53.919Z,100.00
2023-02-26T07:32:20.582Z,100.00
2023-02-26T07:34:47.082Z,100.00
2023-02-26T07:37:13.719Z,100.00
2023-02-26T07:39:40.204Z,100.00
2023-02-26T07:42:06.861Z,100.00
2023-02-26T07:44:33.388Z,100.00
2023-02-26T07:47:00.056Z,100.00
2023-02-26T07:49:26.590Z,100.00
2023-02-26T07:51:53.296Z,100.00
2023-02-26T07:54:19.779Z,100.00
2023-02-26T07:56:46.253Z,100.00
2023-02-26T07:59:12.757Z,100.00
2023-02-26T08:01:39.264Z,100.00
2023-02-26T08:04:05.712Z,100.00
2023-02-26T08:06:32.200Z,100.00
2023-02-26T08:08:58.656Z,100.00
2023-02-26T08:11:25.285Z,100.00
2023-02-26T08:13:51.689Z,100.00
2023-02-26T08:16:18.249Z,100.00
2023-02-26T08:18:44.732Z,100.00
2023-02-26T08:21:11.710Z,100.00
2023-02-26T08:23:39.269Z,100.00
2023-02-26T08:26:10.972Z,100.00
2023-02-26T08:28:37.556Z,100.00
2023-02-26T08:31:04.688Z,100.00
2023-02-26T08:33:32.263Z,100.00
2023-02-26T08:35:59.026Z,100.00
2023-02-26T08:38:27.694Z,100.00
2023-02-26T08:40:54.505Z,100.00
2023-02-26T08:43:21.468Z,100.00
2023-02-26T08:45:48.648Z,100.00
2023-02-26T08:48:15.571Z,100.00
2023-02-26T08:50:42.076Z,100.00
2023-02-26T08:53:08.544Z,100.00
2023-02-26T08:55:35.027Z,100.00
2023-02-26T08:58:01.432Z,100.00
2023-02-26T09:00:28.168Z,100.00
2023-02-26T09:02:54.628Z,100.00
2023-02-26T09:05:21.762Z,100.00
2023-02-26T09:07:48.518Z,100.00
2023-02-26T09:10:16.008Z,100.00
2023-02-26T09:12:43.235Z,100.00
2023-02-26T09:15:10.954Z,100.00
2023-02-26T09:17:37.712Z,100.00
2023-02-26T09:20:05.322Z,100.00
2023-02-26T09:22:32.088Z,100.00
2023-02-26T09:24:58.570Z,100.00
2023-02-26T09:27:25.178Z,100.00
2023-02-26T09:29:51.662Z,100.00
2023-02-26T09:32:18.284Z,100.00
2023-02-26T09:34:44.877Z,100.00
2023-02-26T09:37:11.336Z,100.00
2023-02-26T09:39:37.926Z,100.00
2023-02-26T09:42:19.297Z,100.00
2023-02-26T09:44:48.621Z,100.00
2023-02-26T09:47:41.703Z,100.00
2023-02-26T09:50:31.754Z,100.00
2023-02-26T09:53:21.959Z,100.00
2023-02-26T09:55:50.917Z,100.00
2023-02-26T09:58:23.828Z,100.00
2023-02-26T10:00:58.186Z,100.00
2023-02-26T10:03:57.861Z,100.00
2023-02-26T10:07:10.052Z,100.00
2023-02-26T10:09:51.750Z,100.00
2023-02-26T10:12:21.505Z,100.00
2023-02-26T10:14:51.993Z,100.00
2023-02-26T10:17:40.761Z,100.00
2023-02-26T10:20:19.022Z,100.00
2023-02-26T10:23:00.393Z,100.00
2023-02-26T10:25:47.795Z,100.00
2023-02-26T10:28:34.827Z,99.82
2023-02-26T10:31:09.726Z,100.00
2023-02-26T10:33:50.510Z,99.89
2023-02-26T10:36:31.009Z,99.98
2023-02-26T10:39:03.931Z,100.00
2023-02-26T10:41:34.211Z,100.00
2023-02-26T10:44:18.897Z,100.00
2023-02-26T10:47:09.232Z,100.00
2023-02-26T10:50:01.565Z,100.00
2023-02-26T10:52:31.743Z,100.00
2023-02-26T10:55:04.213Z,100.00
2023-02-26T10:57:34.686Z,98.52
2023-02-26T11:00:05.769Z,94.69
2023-02-26T11:02:43.138Z,95.41
2023-02-26T11:05:19.558Z,95.15
2023-02-26T11:07:51.022Z,92.25
2023-02-26T11:10:21.074Z,90.85
2023-02-26T11:12:47.634Z,90.97
2023-02-26T11:15:17.547Z,89.61
2023-02-26T11:17:47.522Z,90.40
2023-02-26T11:20:19.271Z,91.01
2023-02-26T11:22:50.838Z,90.36
2023-02-26T11:25:23.037Z,90.72
2023-02-26T11:27:53.510Z,88.73
2023-02-26T11:30:22.354Z,87.98
2023-02-26T11:32:56.672Z,92.18
2023-02-26T11:35:26.515Z,88.37
2023-02-26T11:37:57.708Z,87.69
2023-02-26T11:40:42.494Z,81.55
2023-02-26T11:43:19.130Z,80.78
2023-02-26T11:45:49.578Z,81.40
2023-02-26T11:48:42.525Z,79.59
2023-02-26T11:51:14.316Z,78.49
2023-02-26T11:53:49.297Z,79.37
2023-02-26T11:56:34.220Z,77.55
2023-02-26T11:59:16.458Z,77.60
2023-02-26T12:01:43.225Z,77.89
2023-02-26T12:04:12.930Z,75.58
2023-02-26T12:06:39.421Z,75.73
2023-02-26T12:09:14.354Z,75.34
2023-02-26T12:11:46.723Z,75.25
2023-02-26T12:14:44.099Z,74.37
2023-02-26T12:17:18.817Z,72.76
2023-02-26T12:19:54.554Z,72.89
2023-02-26T12:22:39.173Z,70.88
2023-02-26T12:25:26.085Z,70.70
2023-02-26T12:28:05.532Z,70.43
2023-02-26T12:30:41.293Z,69.79
2023-02-26T12:33:07.707Z,71.60
2023-02-26T12:35:40.221Z,72.16
2023-02-26T12:38:15.839Z,73.03
2023-02-26T12:40:49.979Z,74.53
2023-02-26T12:43:24.190Z,73.74
2023-02-26T12:46:01.955Z,73.38
2023-02-26T12:48:42.620Z,73.82
2023-02-26T12:51:28.459Z,72.91
2023-02-26T12:53:55.197Z,72.61
2023-02-26T12:57:03.719Z,72.88
2023-02-26T12:59:33.129Z,72.86
2023-02-26T13:02:07.166Z,71.88
2023-02-26T13:05:03.169Z,68.55
2023-02-26T13:07:57.425Z,69.10
2023-02-26T13:10:45.352Z,69.38
2023-02-26T13:13:21.188Z,70.01
2023-02-26T13:16:05.239Z,68.18
2023-02-26T13:18:49.293Z,68.96
2023-02-26T13:21:39.097Z,67.21
2023-02-26T13:24:24.094Z,63.57
2023-02-26T13:26:53.350Z,61.46
2023-02-26T13:29:46.179Z,62.01
2023-02-26T13:32:17.449Z,60.91
2023-02-26T13:34:58.756Z,60.68
2023-02-26T13:37:33.138Z,57.61
2023-02-26T13:40:14.778Z,56.60
2023-02-26T13:43:01.719Z,56.45
2023-02-26T13:45:34.650Z,57.48
2023-02-26T13:48:07.054Z,59.06
2023-02-26T13:51:07.672Z,56.41
2023-02-26T13:53:35.807Z,57.94
2023-02-26T13:56:22.881Z,57.63
2023-02-26T13:59:16.929Z,57.42
2023-02-26T14:01:57.506Z,57.68
2023-02-26T14:04:33.266Z,57.87
2023-02-26T14:07:10.518Z,59.38
2023-02-26T14:09:48.465Z,59.09
2023-02-26T14:12:15.810Z,57.86
2023-02-26T14:14:45.153Z,58.89
2023-02-26T15:20:28.085Z,62.32
2023-02-26T15:23:19.830Z,59.53
2023-02-26T15:25:49.138Z,61.14
2023-02-26T15:28:29.125Z,61.87
2023-02-26T15:30:57.304Z,63.25
2023-02-26T15:33:26.124Z,63.76
2023-02-26T15:35:54.806Z,63.32
2023-02-26T15:38:22.071Z,63.38
2023-02-26T15:40:51.905Z,62.16
2023-02-26T15:43:24.229Z,62.24
2023-02-26T15:45:54.794Z,63.20
2023-02-26T15:48:42.093Z,63.92
2023-02-26T15:51:12.510Z,62.07
2023-02-26T15:53:47.347Z,63.32
2023-02-26T15:56:20.733Z,63.84
2023-02-26T15:58:53.360Z,64.82
2023-02-26T16:01:25.469Z,64.32
2023-02-26T16:03:56.171Z,65.02
2023-02-26T16:06:30.974Z,65.39
2023-02-26T16:08:59.402Z,64.08
2023-02-26T16:11:31.818Z,64.50
2023-02-26T16:13:59.333Z,65.37
2023-02-26T16:16:44.480Z,66.22
2023-02-26T16:19:20.902Z,67.46
2023-02-26T16:21:48.386Z,67.04
2023-02-26T16:24:18.804Z,66.49
2023-02-26T16:26:52.761Z,67.84
2023-02-26T16:29:33.281Z,67.71
2023-02-26T16:32:02.709Z,69.02
2023-02-26T16:34:51.578Z,70.24
2023-02-26T16:37:26.400Z,70.21
2023-02-26T16:40:11.244Z,69.97
2023-02-26T16:42:46.331Z,69.77
2023-02-26T16:45:16.041Z,70.98
2023-02-26T16:47:44.765Z,69.59
2023-02-26T16:50:25.394Z,69.77
2023-02-26T16:53:07.789Z,71.04
2023-02-26T16:55:39.344Z,72.79
2023-02-26T16:58:09.125Z,73.91
2023-02-26T17:00:38.274Z,72.47
2023-02-26T17:03:12.841Z,72.93
2023-02-26T17:05:42.574Z,74.04
2023-02-26T17:08:14.274Z,73.93
2023-02-26T17:10:47.587Z,74.19
2023-02-26T17:13:34.296Z,75.15
2023-02-26T17:16:09.926Z,76.35
2023-02-26T17:18:36.643Z,76.69
2023-02-26T17:21:04.966Z,77.49
2023-02-26T17:23:37.002Z,78.65
2023-02-26T17:26:04.684Z,78.42
2023-02-26T17:28:37.199Z,77.76
2023-02-26T17:31:04.508Z,80.16
2023-02-26T17:33:31.000Z,81.94
2023-02-26T17:36:00.896Z,82.50
2023-02-26T17:38:27.935Z,83.69
2023-02-26T17:40:55.674Z,83.72
2023-02-26T17:43:22.940Z,85.72
2023-02-26T17:45:49.546Z,85.76
2023-02-26T17:48:16.664Z,88.64
2023-02-26T17:50:49.484Z,89.49
2023-02-26T17:53:17.586Z,92.23
2023-02-26T17:55:45.816Z,91.89
2023-02-26T17:58:17.812Z,91.72
2023-02-26T18:00:49.490Z,92.38
2023-02-26T18:03:16.399Z,93.80
2023-02-26T18:05:43.217Z,95.80
2023-02-26T18:08:22.876Z,100.00
2023-02-26T18:10:49.917Z,99.51
2023-02-26T18:13:16.500Z,100.00
2023-02-26T18:15:43.166Z,100.00
2023-02-26T18:18:11.760Z,100.00
2023-02-26T18:20:38.743Z,100.00
2023-02-26T18:23:08.541Z,100.00
2023-02-26T18:25:36.908Z,100.00
2023-02-26T18:28:05.027Z,100.00
2023-02-26T18:30:34.334Z,100.00
2023-02-26T18:33:00.954Z,100.00
2023-02-26T18:35:30.132Z,100.00
2023-02-26T18:37:57.049Z,100.00
2023-02-26T18:40:26.534Z,100.00
2023-02-26T18:42:53.162Z,100.00
2023-02-26T18:45:20.561Z,100.00
2023-02-26T18:47:47.814Z,100.00
2023-02-26T18:50:16.462Z,100.00
2023-02-26T18:52:43.455Z,100.00
2023-02-26T18:55:13.970Z,100.00
2023-02-26T18:57:42.427Z,100.00
2023-02-26T19:00:14.331Z,100.00
2023-02-26T19:02:42.417Z,100.00
2023-02-26T19:05:10.136Z,100.00
2023-02-26T19:07:37.003Z,100.00
2023-02-26T19:10:05.491Z,100.00
2023-02-26T19:12:35.597Z,100.00
2023-02-26T19:15:02.525Z,100.00
2023-02-26T19:17:29.093Z,100.00
2023-02-26T19:19:55.540Z,100.00
2023-02-26T19:22:21.982Z,100.00
2023-02-26T19:24:48.609Z,100.00
2023-02-26T19:27:15.443Z,100.00
2023-02-26T19:29:42.465Z,100.00
2023-02-26T19:32:09.470Z,100.00
2023-02-26T19:34:36.212Z,100.00
2023-02-26T19:37:02.727Z,100.00
2023-02-26T19:39:29.388Z,100.00
2023-02-26T19:41:56.024Z,100.00
2023-02-26T19:44:24.156Z,100.00
2023-02-26T19:46:51.416Z,100.00
2023-02-26T19:49:18.124Z,100.00
2023-02-26T19:51:45.167Z,100.00
2023-02-26T19:54:14.083Z,100.00
2023-02-26T19:56:42.176Z,100.00
2023-02-26T19:59:09.509Z,100.00
2023-02-26T20:01:36.130Z,100.00
2023-02-26T20:04:03.407Z,100.00
2023-02-26T20:06:29.895Z,100.00
2023-02-26T20:08:56.424Z,100.00
2023-02-26T20:11:22.975Z,100.00
2023-02-26T20:13:49.467Z,100.00
2023-02-26T20:16:16.282Z,100.00
2023-02-26T20:18:44.200Z,100.00
2023-02-26T20:21:10.871Z,100.00
2023-02-26T20:23:38.785Z,100.00
2023-02-26T20:26:09.464Z,100.00
2023-02-26T20:28:36.052Z,100.00
2023-02-26T20:31:03.516Z,100.00
2023-02-26T20:33:33.122Z,100.00
2023-02-26T20:36:00.364Z,100.00
2023-02-26T20:38:28.190Z,100.00
2023-02-26T20:40:55.257Z,100.00
2023-02-26T20:43:21.712Z,100.00
2023-02-26T20:45:49.057Z,100.00
2023-02-26T20:48:15.501Z,100.00
2023-02-26T20:50:42.032Z,100.00
2023-02-26T20:53:08.739Z,100.00
2023-02-26T20:55:35.933Z,100.00
2023-02-26T20:58:03.772Z,100.00
2023-02-26T21:00:30.664Z,100.00
2023-02-26T21:02:57.242Z,100.00
2023-02-26T21:05:23.814Z,100.00
2023-02-26T21:07:51.071Z,100.00
2023-02-26T21:10:19.074Z,100.00
2023-02-26T21:12:46.019Z,100.00
2023-02-26T21:15:13.374Z,100.00
2023-02-26T21:17:41.916Z,100.00
2023-02-26T21:20:11.776Z,100.00
2023-02-26T21:22:39.258Z,100.00
2023-02-26T21:25:07.003Z,100.00
2023-02-26T21:27:34.721Z,100.00
2023-02-26T21:30:01.279Z,100.00
2023-02-26T21:32:27.822Z,100.00
2023-02-26T21:34:55.647Z,100.00
2023-02-26T21:37:22.127Z,100.00
2023-02-26T21:39:48.625Z,100.00
2023-02-26T21:42:15.469Z,100.00
2023-02-26T21:44:42.382Z,100.00
2023-02-26T21:47:09.532Z,100.00
2023-02-26T21:49:36.086Z,100.00
2023-02-26T21:52:05.770Z,100.00
2023-02-26T21:54:32.306Z,100.00
2023-02-26T21:56:59.293Z,100.00
2023-02-26T21:59:26.329Z,100.00
2023-02-26T22:01:53.343Z,100.00
2023-02-26T22:04:21.786Z,100.00
2023-02-26T22:06:48.427Z,100.00
2023-02-26T22:09:14.972Z,100.00
2023-02-26T22:11:41.435Z,100.00
2023-02-26T22:14:12.275Z,100.00
2023-02-26T22:16:38.778Z,100.00
2023-02-26T22:19:06.522Z,100.00
2023-02-26T22:21:33.625Z,100.00
2023-02-26T22:24:02.965Z,100.00
2023-02-26T22:26:31.243Z,100.00
2023-02-26T22:29:00.894Z,100.00
2023-02-26T22:31:33.305Z,100.00
2023-02-26T22:34:05.774Z,100.00
2023-02-26T22:36:36.612Z,100.00
2023-02-26T22:39:05.588Z,100.00
2023-02-26T22:41:36.650Z,100.00
2023-02-26T22:44:05.239Z,100.00
2023-02-26T22:46:36.095Z,100.00
2023-02-26T22:49:06.147Z,100.00
2023-02-26T22:51:33.172Z,100.00
2023-02-26T22:54:00.671Z,100.00
2023-02-26T22:56:27.621Z,100.00
2023-02-26T22:58:57.431Z,100.00
2023-02-26T23:01:24.090Z,100.00
2023-02-26T23:03:51.205Z,100.00
2023-02-26T23:06:17.745Z,100.00
2023-02-26T23:08:44.272Z,100.00
2023-02-26T23:11:14.916Z,100.00
2023-02-26T23:13:41.494Z,100.00
2023-02-26T23:16:16.517Z,100.00
2023-02-26T23:18:51.488Z,100.00
2023-02-26T23:21:17.943Z,100.00
2023-02-26T23:23:44.487Z,100.00
2023-02-26T23:26:11.559Z,100.00
2023-02-26T23:28:39.085Z,100.00
2023-02-26T23:31:06.029Z,100.00
2023-02-26T23:33:32.739Z,100.00
2023-02-26T23:35:59.203Z,100.00
2023-02-26T23:38:25.782Z,100.00
2023-02-26T23:40:52.392Z,100.00
2023-02-26T23:43:23.106Z,100.00
2023-02-26T23:45:49.931Z,100.00
2023-02-26T23:48:16.765Z,100.00
2023-02-26T23:50:44.033Z,100.00
2023-02-26T23:53:10.629Z,100.00
2023-02-26T23:55:37.177Z,100.00
2023-02-26T23:58:03.719Z,100.00
